sensor_id;sensor_type;location;lat;lon;timestamp;pressure;altitude;pressure_sealevel;temperature;humidity
68654;BME280;55636;51.108;13.622;2023-03-14T00:00:09;98277.19;;;11.32;65.10
68654;BME280;55636;51.108;13.622;2023-03-14T00:01:15;98268.06;;;11.32;65.10
68654;BME280;55636;51.108;13.622;2023-03-14T00:02:18;98262.53;;;11.32;65.12
68654;BME280;55636;51.108;13.622;2023-03-14T00:03:20;98265.94;;;11.29;65.01
68654;BME280;55636;51.108;13.622;2023-03-14T00:04:22;98262.34;;;11.28;65.14
68654;BME280;55636;51.108;13.622;2023-03-14T00:05:25;98258.28;;;11.26;65.37
68654;BME280;55636;51.108;13.622;2023-03-14T00:06:28;98246.72;;;11.24;65.48
68654;BME280;55636;51.108;13.622;2023-03-14T00:07:31;98242.00;;;11.24;65.33
68654;BME280;55636;51.108;13.622;2023-03-14T00:08:35;98243.44;;;11.22;65.25
68654;BME280;55636;51.108;13.622;2023-03-14T00:09:38;98241.84;;;11.21;65.10
68654;BME280;55636;51.108;13.622;2023-03-14T00:10:41;98240.19;;;11.19;65.32
68654;BME280;55636;51.108;13.622;2023-03-14T00:11:43;98227.50;;;11.18;65.37
68654;BME280;55636;51.108;13.622;2023-03-14T00:12:45;98230.59;;;11.17;65.50
68654;BME280;55636;51.108;13.622;2023-03-14T00:13:51;98232.03;;;11.14;65.76
68654;BME280;55636;51.108;13.622;2023-03-14T00:14:54;98230.09;;;11.15;65.45
68654;BME280;55636;51.108;13.622;2023-03-14T00:16:02;98229.91;;;11.11;65.70
68654;BME280;55636;51.108;13.622;2023-03-14T00:17:05;98222.75;;;11.10;65.76
68654;BME280;55636;51.108;13.622;2023-03-14T00:18:07;98221.94;;;11.10;65.79
68654;BME280;55636;51.108;13.622;2023-03-14T00:19:11;98228.09;;;11.07;65.85
68654;BME280;55636;51.108;13.622;2023-03-14T00:20:13;98237.84;;;11.04;65.94
68654;BME280;55636;51.108;13.622;2023-03-14T00:21:15;98231.00;;;11.01;66.03
68654;BME280;55636;51.108;13.622;2023-03-14T00:22:18;98230.19;;;11.01;66.06
68654;BME280;55636;51.108;13.622;2023-03-14T00:23:20;98229.34;;;11.00;65.84
68654;BME280;55636;51.108;13.622;2023-03-14T00:24:22;98227.72;;;10.99;66.01
68654;BME280;55636;51.108;13.622;2023-03-14T00:25:24;98225.59;;;10.96;66.28
68654;BME280;55636;51.108;13.622;2023-03-14T00:26:27;98216.00;;;10.94;66.22
68654;BME280;55636;51.108;13.622;2023-03-14T00:27:31;98217.94;;;10.93;66.12
68654;BME280;55636;51.108;13.622;2023-03-14T00:28:34;98217.44;;;10.91;66.07
68654;BME280;55636;51.108;13.622;2023-03-14T00:29:36;98220.19;;;10.91;66.10
68654;BME280;55636;51.108;13.622;2023-03-14T00:30:38;98216.91;;;10.89;66.15
68654;BME280;55636;51.108;13.622;2023-03-14T00:31:43;98211.41;;;10.89;66.04
68654;BME280;55636;51.108;13.622;2023-03-14T00:32:46;98215.31;;;10.88;66.33
68654;BME280;55636;51.108;13.622;2023-03-14T00:33:48;98223.59;;;10.88;66.16
68654;BME280;55636;51.108;13.622;2023-03-14T00:34:50;98222.56;;;10.84;66.43
68654;BME280;55636;51.108;13.622;2023-03-14T00:35:57;98223.72;;;10.83;66.46
68654;BME280;55636;51.108;13.622;2023-03-14T00:37:00;98226.50;;;10.83;66.35
68654;BME280;55636;51.108;13.622;2023-03-14T00:38:02;98225.16;;;10.80;66.52
68654;BME280;55636;51.108;13.622;2023-03-14T00:39:04;98226.28;;;10.79;66.42
68654;BME280;55636;51.108;13.622;2023-03-14T00:40:07;98229.38;;;10.78;66.79
68654;BME280;55636;51.108;13.622;2023-03-14T00:41:12;98235.69;;;10.78;66.55
68654;BME280;55636;51.108;13.622;2023-03-14T00:42:15;98230.50;;;10.77;66.31
68654;BME280;55636;51.108;13.622;2023-03-14T00:43:18;98230.50;;;10.77;66.47
68654;BME280;55636;51.108;13.622;2023-03-14T00:44:23;98233.06;;;10.73;66.46
68654;BME280;55636;51.108;13.622;2023-03-14T00:45:25;98236.94;;;10.72;66.79
68654;BME280;55636;51.108;13.622;2023-03-14T00:46:28;98235.63;;;10.69;67.01
68654;BME280;55636;51.108;13.622;2023-03-14T00:47:30;98241.16;;;10.69;66.74
68654;BME280;55636;51.108;13.622;2023-03-14T00:48:33;98248.63;;;10.69;66.83
68654;BME280;55636;51.108;13.622;2023-03-14T00:49:35;98246.19;;;10.67;66.77
68654;BME280;55636;51.108;13.622;2023-03-14T00:50:37;98244.53;;;10.66;66.59
68654;BME280;55636;51.108;13.622;2023-03-14T00:51:39;98249.25;;;10.66;66.94
68654;BME280;55636;51.108;13.622;2023-03-14T00:52:42;98251.19;;;10.65;66.71
68654;BME280;55636;51.108;13.622;2023-03-14T00:53:44;98236.59;;;10.65;66.76
68654;BME280;55636;51.108;13.622;2023-03-14T00:54:47;98242.09;;;10.65;66.88
68654;BME280;55636;51.108;13.622;2023-03-14T00:55:50;98240.47;;;10.64;67.07
68654;BME280;55636;51.108;13.622;2023-03-14T00:56:52;98238.50;;;10.64;66.81
68654;BME280;55636;51.108;13.622;2023-03-14T00:57:54;98243.53;;;10.62;66.95
68654;BME280;55636;51.108;13.622;2023-03-14T00:58:56;98240.59;;;10.59;67.04
68654;BME280;55636;51.108;13.622;2023-03-14T00:59:59;98246.91;;;10.59;66.95
68654;BME280;55636;51.108;13.622;2023-03-14T01:01:16;98251.13;;;10.57;67.21
68654;BME280;55636;51.108;13.622;2023-03-14T01:02:20;98246.75;;;10.56;67.04
68654;BME280;55636;51.108;13.622;2023-03-14T01:03:23;98248.38;;;10.57;66.96
68654;BME280;55636;51.108;13.622;2023-03-14T01:04:26;98244.47;;;10.58;67.21
68654;BME280;55636;51.108;13.622;2023-03-14T01:05:29;98237.34;;;10.57;67.18
68654;BME280;55636;51.108;13.622;2023-03-14T01:06:32;98242.03;;;10.56;67.14
68654;BME280;55636;51.108;13.622;2023-03-14T01:07:34;98234.06;;;10.55;67.22
68654;BME280;55636;51.108;13.622;2023-03-14T01:08:41;98236.00;;;10.54;67.41
68654;BME280;55636;51.108;13.622;2023-03-14T01:09:43;98236.31;;;10.52;67.46
68654;BME280;55636;51.108;13.622;2023-03-14T01:10:45;98242.13;;;10.51;67.42
68654;BME280;55636;51.108;13.622;2023-03-14T01:11:48;98238.38;;;10.47;67.59
68654;BME280;55636;51.108;13.622;2023-03-14T01:12:51;98240.00;;;10.48;67.62
68654;BME280;55636;51.108;13.622;2023-03-14T01:13:54;98241.13;;;10.47;67.45
68654;BME280;55636;51.108;13.622;2023-03-14T01:14:56;98236.41;;;10.47;67.57
68654;BME280;55636;51.108;13.622;2023-03-14T01:16:04;98235.63;;;10.47;67.55
68654;BME280;55636;51.108;13.622;2023-03-14T01:17:11;98233.66;;;10.47;67.36
68654;BME280;55636;51.108;13.622;2023-03-14T01:18:13;98230.41;;;10.45;67.54
68654;BME280;55636;51.108;13.622;2023-03-14T01:19:17;98222.94;;;10.46;67.52
68654;BME280;55636;51.108;13.622;2023-03-14T01:20:19;98229.91;;;10.43;67.63
68654;BME280;55636;51.108;13.622;2023-03-14T01:21:27;98223.56;;;10.43;67.73
68654;BME280;55636;51.108;13.622;2023-03-14T01:22:30;98226.34;;;10.43;67.52
68654;BME280;55636;51.108;13.622;2023-03-14T01:23:33;98222.75;;;10.42;67.65
68654;BME280;55636;51.108;13.622;2023-03-14T01:24:37;98221.13;;;10.41;67.60
68654;BME280;55636;51.108;13.622;2023-03-14T01:25:43;98219.50;;;10.40;67.54
68654;BME280;55636;51.108;13.622;2023-03-14T01:26:45;98220.28;;;10.41;67.62
68654;BME280;55636;51.108;13.622;2023-03-14T01:27:48;98224.50;;;10.38;67.59
68654;BME280;55636;51.108;13.622;2023-03-14T01:28:52;98221.25;;;10.36;67.55
68654;BME280;55636;51.108;13.622;2023-03-14T01:29:54;98222.06;;;10.36;67.71
68654;BME280;55636;51.108;13.622;2023-03-14T01:31:05;98226.25;;;10.34;67.84
68654;BME280;55636;51.108;13.622;2023-03-14T01:32:08;98223.50;;;10.34;67.46
68654;BME280;55636;51.108;13.622;2023-03-14T01:33:11;98220.72;;;10.34;67.66
68654;BME280;55636;51.108;13.622;2023-03-14T01:34:18;98223.50;;;10.34;67.74
68654;BME280;55636;51.108;13.622;2023-03-14T01:35:23;98229.31;;;10.32;67.64
68654;BME280;55636;51.108;13.622;2023-03-14T01:36:25;98218.28;;;10.32;67.43
68654;BME280;55636;51.108;13.622;2023-03-14T01:37:28;98226.56;;;10.32;67.33
68654;BME280;55636;51.108;13.622;2023-03-14T01:38:35;98222.47;;;10.30;67.40
68654;BME280;55636;51.108;13.622;2023-03-14T01:39:38;98226.03;;;10.30;67.40
68654;BME280;55636;51.108;13.622;2023-03-14T01:40:44;98223.59;;;10.29;67.33
68654;BME280;55636;51.108;13.622;2023-03-14T01:41:47;98227.47;;;10.28;67.33
68654;BME280;55636;51.108;13.622;2023-03-14T01:42:57;98212.56;;;10.29;67.23
68654;BME280;55636;51.108;13.622;2023-03-14T01:44:00;98224.72;;;10.28;67.03
68654;BME280;55636;51.108;13.622;2023-03-14T01:45:03;98221.97;;;10.28;66.90
68654;BME280;55636;51.108;13.622;2023-03-14T01:47:13;98225.03;;;10.26;66.95
68654;BME280;55636;51.108;13.622;2023-03-14T01:48:15;98221.97;;;10.28;66.65
68654;BME280;55636;51.108;13.622;2023-03-14T01:49:32;98224.72;;;10.28;66.58
68654;BME280;55636;51.108;13.622;2023-03-14T01:50:40;98210.94;;;10.28;66.37
68654;BME280;55636;51.108;13.622;2023-03-14T01:52:47;98211.75;;;10.28;66.27
68654;BME280;55636;51.108;13.622;2023-03-14T01:53:54;98209.81;;;10.29;66.21
68654;BME280;55636;51.108;13.622;2023-03-14T01:55:07;98218.09;;;10.29;65.93
68654;BME280;55636;51.108;13.622;2023-03-14T01:56:13;98218.09;;;10.29;66.03
68654;BME280;55636;51.108;13.622;2023-03-14T01:57:24;98222.16;;;10.31;65.89
68654;BME280;55636;51.108;13.622;2023-03-14T01:58:30;98221.38;;;10.31;65.86
68654;BME280;55636;51.108;13.622;2023-03-14T01:59:37;98213.56;;;10.33;65.92
68654;BME280;55636;51.108;13.622;2023-03-14T02:00:41;98212.75;;;10.32;65.90
68654;BME280;55636;51.108;13.622;2023-03-14T02:01:46;98219.91;;;10.33;65.75
68654;BME280;55636;51.108;13.622;2023-03-14T02:02:58;98216.84;;;10.35;65.63
68654;BME280;55636;51.108;13.622;2023-03-14T02:04:05;98209.69;;;10.34;65.61
68654;BME280;55636;51.108;13.622;2023-03-14T02:05:10;98216.84;;;10.35;65.73
68654;BME280;55636;51.108;13.622;2023-03-14T02:06:14;98216.84;;;10.35;65.53
68654;BME280;55636;51.108;13.622;2023-03-14T02:08:39;98205.50;;;10.36;65.22
68654;BME280;55636;51.108;13.622;2023-03-14T02:09:48;98203.53;;;10.37;65.20
68654;BME280;55636;51.108;13.622;2023-03-14T02:10:57;98210.38;;;10.40;65.27
68654;BME280;55636;51.108;13.622;2023-03-14T02:12:15;98205.69;;;10.40;65.00
68654;BME280;55636;51.108;13.622;2023-03-14T02:13:25;98215.59;;;10.41;64.82
68654;BME280;55636;51.108;13.622;2023-03-14T02:14:53;98210.09;;;10.41;64.67
68654;BME280;55636;51.108;13.622;2023-03-14T02:16:05;98206.19;;;10.42;64.53
68654;BME280;55636;51.108;13.622;2023-03-14T02:17:21;98209.44;;;10.44;64.46
68654;BME280;55636;51.108;13.622;2023-03-14T02:18:33;98209.97;;;10.46;64.43
68654;BME280;55636;51.108;13.622;2023-03-14T02:20:22;98209.97;;;10.46;64.34
68654;BME280;55636;51.108;13.622;2023-03-14T02:22:01;98198.63;;;10.48;63.97
68654;BME280;55636;51.108;13.622;2023-03-14T02:23:09;98204.94;;;10.48;64.07
68654;BME280;55636;51.108;13.622;2023-03-14T02:24:29;98199.09;;;10.50;63.82
68654;BME280;55636;51.108;13.622;2023-03-14T02:25:48;98198.28;;;10.49;63.72
68654;BME280;55636;51.108;13.622;2023-03-14T02:27:05;98192.78;;;10.49;63.88
68654;BME280;55636;51.108;13.622;2023-03-14T02:28:08;98197.16;;;10.50;63.64
68654;BME280;55636;51.108;13.622;2023-03-14T02:29:11;98192.47;;;10.51;63.53
68654;BME280;55636;51.108;13.622;2023-03-14T02:30:25;98193.28;;;10.51;63.46
68654;BME280;55636;51.108;13.622;2023-03-14T02:31:28;98186.94;;;10.51;63.52
68654;BME280;55636;51.108;13.622;2023-03-14T02:32:32;98179.16;;;10.53;63.29
68654;BME280;55636;51.108;13.622;2023-03-14T02:33:37;98185.81;;;10.52;63.18
68654;BME280;55636;51.108;13.622;2023-03-14T02:34:42;98190.22;;;10.53;63.23
68654;BME280;55636;51.108;13.622;2023-03-14T02:35:53;98184.38;;;10.55;63.01
68654;BME280;55636;51.108;13.622;2023-03-14T02:36:58;98192.66;;;10.55;62.96
68654;BME280;55636;51.108;13.622;2023-03-14T02:38:17;98184.38;;;10.55;62.79
68654;BME280;55636;51.108;13.622;2023-03-14T02:39:29;98178.53;;;10.56;62.67
68654;BME280;55636;51.108;13.622;2023-03-14T02:40:35;98183.25;;;10.56;62.67
68654;BME280;55636;51.108;13.622;2023-03-14T02:41:37;98194.78;;;10.58;62.74
68654;BME280;55636;51.108;13.622;2023-03-14T02:42:41;98198.38;;;10.58;62.70
68654;BME280;55636;51.108;13.622;2023-03-14T02:43:43;98195.28;;;10.60;62.51
68654;BME280;55636;51.108;13.622;2023-03-14T02:44:48;98182.28;;;10.60;62.39
68654;BME280;55636;51.108;13.622;2023-03-14T02:45:52;98187.50;;;10.62;62.26
68654;BME280;55636;51.108;13.622;2023-03-14T02:46:57;98188.31;;;10.62;62.42
68654;BME280;55636;51.108;13.622;2023-03-14T02:48:04;98189.13;;;10.63;62.03
68654;BME280;55636;51.108;13.622;2023-03-14T02:49:13;98186.38;;;10.63;62.17
68654;BME280;55636;51.108;13.622;2023-03-14T02:50:19;98185.25;;;10.64;62.06
68654;BME280;55636;51.108;13.622;2023-03-14T02:51:23;98193.53;;;10.64;61.77
68654;BME280;55636;51.108;13.622;2023-03-14T02:52:28;98192.41;;;10.65;61.69
68654;BME280;55636;51.108;13.622;2023-03-14T02:53:33;98191.56;;;10.64;61.70
68654;BME280;55636;51.108;13.622;2023-03-14T02:54:41;98189.97;;;10.63;61.57
68654;BME280;55636;51.108;13.622;2023-03-14T02:55:47;98193.22;;;10.65;61.60
68654;BME280;55636;51.108;13.622;2023-03-14T02:56:51;98181.38;;;10.65;61.28
68654;BME280;55636;51.108;13.622;2023-03-14T02:57:53;98187.69;;;10.65;61.28
68654;BME280;55636;51.108;13.622;2023-03-14T02:58:56;98181.03;;;10.66;60.98
68654;BME280;55636;51.108;13.622;2023-03-14T03:00:07;98184.59;;;10.67;60.44
68654;BME280;55636;51.108;13.622;2023-03-14T03:01:12;98175.84;;;10.65;60.51
68654;BME280;55636;51.108;13.622;2023-03-14T03:02:14;98162.03;;;10.65;60.22
68654;BME280;55636;51.108;13.622;2023-03-14T03:03:17;98163.34;;;10.67;60.35
68654;BME280;55636;51.108;13.622;2023-03-14T03:04:19;98174.06;;;10.69;60.27
68654;BME280;55636;51.108;13.622;2023-03-14T03:05:22;98170.19;;;10.70;60.24
68654;BME280;55636;51.108;13.622;2023-03-14T03:06:24;98172.63;;;10.72;59.98
68654;BME280;55636;51.108;13.622;2023-03-14T03:07:26;98166.00;;;10.73;59.93
68654;BME280;55636;51.108;13.622;2023-03-14T03:08:31;98168.44;;;10.74;60.12
68654;BME280;55636;51.108;13.622;2023-03-14T03:09:34;98170.88;;;10.76;60.40
68654;BME280;55636;51.108;13.622;2023-03-14T03:10:36;98166.97;;;10.77;60.11
68654;BME280;55636;51.108;13.622;2023-03-14T03:11:41;98174.94;;;10.78;59.95
68654;BME280;55636;51.108;13.622;2023-03-14T03:12:51;98166.34;;;10.80;60.10
68654;BME280;55636;51.108;13.622;2023-03-14T03:13:59;98170.41;;;10.82;60.21
68654;BME280;55636;51.108;13.622;2023-03-14T03:15:03;98165.72;;;10.83;60.00
68654;BME280;55636;51.108;13.622;2023-03-14T03:16:10;98161.81;;;10.84;59.89
68654;BME280;55636;51.108;13.622;2023-03-14T03:17:16;98157.59;;;10.86;59.77
68654;BME280;55636;51.108;13.622;2023-03-14T03:18:18;98159.25;;;10.88;59.78
68654;BME280;55636;51.108;13.622;2023-03-14T03:19:21;98165.59;;;10.88;59.88
68654;BME280;55636;51.108;13.622;2023-03-14T03:20:23;98160.56;;;10.90;59.62
68654;BME280;55636;51.108;13.622;2023-03-14T03:21:25;98163.31;;;10.90;59.73
68654;BME280;55636;51.108;13.622;2023-03-14T03:22:28;98162.50;;;10.90;59.83
68654;BME280;55636;51.108;13.622;2023-03-14T03:23:30;98163.00;;;10.92;59.69
68654;BME280;55636;51.108;13.622;2023-03-14T03:24:33;98167.41;;;10.93;59.53
68654;BME280;55636;51.108;13.622;2023-03-14T03:25:37;98164.63;;;10.93;59.59
68654;BME280;55636;51.108;13.622;2023-03-14T03:26:40;98168.72;;;10.95;59.72
68654;BME280;55636;51.108;13.622;2023-03-14T03:27:44;98169.03;;;10.94;59.52
68654;BME280;55636;51.108;13.622;2023-03-14T03:28:50;98161.25;;;10.96;59.48
68654;BME280;55636;51.108;13.622;2023-03-14T03:29:53;98159.31;;;10.96;59.59
68654;BME280;55636;51.108;13.622;2023-03-14T03:30:55;98154.09;;;10.95;59.38
68654;BME280;55636;51.108;13.622;2023-03-14T03:31:57;98149.38;;;10.95;59.30
68654;BME280;55636;51.108;13.622;2023-03-14T03:33:00;98157.34;;;10.97;59.07
68654;BME280;55636;51.108;13.622;2023-03-14T03:34:03;98159.81;;;10.98;59.09
68654;BME280;55636;51.108;13.622;2023-03-14T03:35:06;98156.22;;;10.98;59.06
68654;BME280;55636;51.108;13.622;2023-03-14T03:36:12;98156.22;;;10.98;59.00
68654;BME280;55636;51.108;13.622;2023-03-14T03:37:16;98152.31;;;10.99;59.07
68654;BME280;55636;51.108;13.622;2023-03-14T03:38:19;98152.31;;;10.99;58.85
68654;BME280;55636;51.108;13.622;2023-03-14T03:39:24;98161.41;;;10.99;58.76
68654;BME280;55636;51.108;13.622;2023-03-14T03:40:27;98162.25;;;11.00;58.60
68654;BME280;55636;51.108;13.622;2023-03-14T03:41:31;98153.97;;;11.00;58.75
68654;BME280;55636;51.108;13.622;2023-03-14T03:42:34;98169.69;;;10.99;58.45
68654;BME280;55636;51.108;13.622;2023-03-14T03:43:37;98166.94;;;10.99;58.52
68654;BME280;55636;51.108;13.622;2023-03-14T03:44:41;98164.19;;;10.99;58.36
68654;BME280;55636;51.108;13.622;2023-03-14T03:45:45;98166.94;;;10.99;58.33
68654;BME280;55636;51.108;13.622;2023-03-14T03:46:47;98166.94;;;10.99;58.38
68654;BME280;55636;51.108;13.622;2023-03-14T03:47:49;98166.94;;;10.99;58.16
68654;BME280;55636;51.108;13.622;2023-03-14T03:48:56;98162.56;;;10.98;58.14
68654;BME280;55636;51.108;13.622;2023-03-14T03:50:00;98165.34;;;10.98;58.32
68654;BME280;55636;51.108;13.622;2023-03-14T03:51:03;98171.66;;;10.99;58.24
68654;BME280;55636;51.108;13.622;2023-03-14T03:52:06;98160.94;;;10.97;58.16
68654;BME280;55636;51.108;13.622;2023-03-14T03:53:08;98165.63;;;10.97;57.99
68654;BME280;55636;51.108;13.622;2023-03-14T03:54:11;98165.34;;;10.98;58.19
68654;BME280;55636;51.108;13.622;2023-03-14T03:55:13;98158.97;;;10.98;58.06
68654;BME280;55636;51.108;13.622;2023-03-14T03:56:16;98169.22;;;10.97;57.74
68654;BME280;55636;51.108;13.622;2023-03-14T03:57:19;98165.63;;;10.97;57.88
68654;BME280;55636;51.108;13.622;2023-03-14T03:58:22;98164.50;;;10.98;57.83
68654;BME280;55636;51.108;13.622;2023-03-14T03:59:24;98168.91;;;10.99;57.66
68654;BME280;55636;51.108;13.622;2023-03-14T04:00:27;98166.47;;;10.97;57.78
68654;BME280;55636;51.108;13.622;2023-03-14T04:01:30;98167.25;;;10.98;57.72
68654;BME280;55636;51.108;13.622;2023-03-14T04:02:35;98163.69;;;10.97;57.58
68654;BME280;55636;51.108;13.622;2023-03-14T04:03:39;98161.75;;;10.98;57.86
68654;BME280;55636;51.108;13.622;2023-03-14T04:04:42;98156.22;;;10.98;57.74
68654;BME280;55636;51.108;13.622;2023-03-14T04:05:57;98151.81;;;10.97;57.82
68654;BME280;55636;51.108;13.622;2023-03-14T04:07:01;98156.22;;;10.98;57.75
68654;BME280;55636;51.108;13.622;2023-03-14T04:08:05;98158.66;;;10.99;57.63
68654;BME280;55636;51.108;13.622;2023-03-14T04:09:08;98162.56;;;10.98;57.56
68654;BME280;55636;51.108;13.622;2023-03-14T04:10:20;98160.94;;;10.97;57.65
68654;BME280;55636;51.108;13.622;2023-03-14T04:11:38;98168.56;;;11.00;57.49
68654;BME280;55636;51.108;13.622;2023-03-14T04:13:18;98176.06;;;11.00;57.47
68654;BME280;55636;51.108;13.622;2023-03-14T04:14:25;98161.75;;;10.98;57.42
68654;BME280;55636;51.108;13.622;2023-03-14T04:15:44;98164.50;;;10.98;57.26
68654;BME280;55636;51.108;13.622;2023-03-14T04:16:53;98173.63;;;10.98;57.42
68654;BME280;55636;51.108;13.622;2023-03-14T04:17:58;98168.09;;;10.98;57.32
68654;BME280;55636;51.108;13.622;2023-03-14T04:19:02;98170.03;;;10.98;57.35
68654;BME280;55636;51.108;13.622;2023-03-14T04:20:06;98164.50;;;10.98;57.28
68654;BME280;55636;51.108;13.622;2023-03-14T04:21:14;98164.81;;;10.96;57.28
68654;BME280;55636;51.108;13.622;2023-03-14T04:22:21;98171.16;;;10.97;57.06
68654;BME280;55636;51.108;13.622;2023-03-14T04:23:25;98176.69;;;10.97;57.22
68654;BME280;55636;51.108;13.622;2023-03-14T04:24:29;98165.16;;;10.95;56.67
68654;BME280;55636;51.108;13.622;2023-03-14T04:25:33;98168.22;;;10.93;56.66
68654;BME280;55636;51.108;13.622;2023-03-14T04:26:38;98171.28;;;10.92;56.82
68654;BME280;55636;51.108;13.622;2023-03-14T04:27:43;98170.47;;;10.91;56.58
68654;BME280;55636;51.108;13.622;2023-03-14T04:28:58;98167.41;;;10.93;56.69
68654;BME280;55636;51.108;13.622;2023-03-14T04:30:01;98164.63;;;10.93;56.60
68654;BME280;55636;51.108;13.622;2023-03-14T04:31:21;98162.72;;;10.93;56.62
68654;BME280;55636;51.108;13.622;2023-03-14T04:32:25;98153.59;;;10.93;56.62
68654;BME280;55636;51.108;13.622;2023-03-14T04:33:27;98158.78;;;10.94;56.66
68654;BME280;55636;51.108;13.622;2023-03-14T04:34:31;98155.22;;;10.94;56.44
68654;BME280;55636;51.108;13.622;2023-03-14T04:35:33;98150.03;;;10.92;56.46
68654;BME280;55636;51.108;13.622;2023-03-14T04:36:41;98158.31;;;10.92;56.35
68654;BME280;55636;51.108;13.622;2023-03-14T04:37:48;98153.59;;;10.93;56.39
68654;BME280;55636;51.108;13.622;2023-03-14T04:38:51;98159.13;;;10.93;56.39
68654;BME280;55636;51.108;13.622;2023-03-14T04:39:56;98152.78;;;10.92;56.30
68654;BME280;55636;51.108;13.622;2023-03-14T04:41:01;98157.19;;;10.93;56.28
68654;BME280;55636;51.108;13.622;2023-03-14T04:42:07;98148.06;;;10.93;56.08
68654;BME280;55636;51.108;13.622;2023-03-14T04:43:12;98148.91;;;10.93;56.11
68654;BME280;55636;51.108;13.622;2023-03-14T04:44:21;98153.59;;;10.93;56.33
68654;BME280;55636;51.108;13.622;2023-03-14T04:45:31;98154.41;;;10.93;56.10
68654;BME280;55636;51.108;13.622;2023-03-14T04:46:37;98148.91;;;10.93;56.18
68654;BME280;55636;51.108;13.622;2023-03-14T04:47:41;98151.66;;;10.93;55.90
68654;BME280;55636;51.108;13.622;2023-03-14T04:48:47;98141.72;;;10.92;55.86
68654;BME280;55636;51.108;13.622;2023-03-14T04:49:51;98145.31;;;10.93;55.83
68654;BME280;55636;51.108;13.622;2023-03-14T04:50:55;98142.53;;;10.93;55.90
68654;BME280;55636;51.108;13.622;2023-03-14T04:51:58;98148.06;;;10.93;55.78
68654;BME280;55636;51.108;13.622;2023-03-14T04:53:04;98153.59;;;10.93;55.58
68654;BME280;55636;51.108;13.622;2023-03-14T04:54:07;98151.66;;;10.93;55.72
68654;BME280;55636;51.108;13.622;2023-03-14T04:55:09;98157.47;;;10.92;55.69
68654;BME280;55636;51.108;13.622;2023-03-14T04:56:12;98145.31;;;10.93;55.60
68654;BME280;55636;51.108;13.622;2023-03-14T04:57:16;98151.16;;;10.91;55.71
68654;BME280;55636;51.108;13.622;2023-03-14T04:58:20;98148.38;;;10.91;55.64
68654;BME280;55636;51.108;13.622;2023-03-14T04:59:24;98148.38;;;10.91;55.62
68654;BME280;55636;51.108;13.622;2023-03-14T05:00:29;98140.09;;;10.91;55.41
68654;BME280;55636;51.108;13.622;2023-03-14T05:01:52;98143.66;;;10.92;55.58
68654;BME280;55636;51.108;13.622;2023-03-14T05:02:59;98135.69;;;10.90;55.62
68654;BME280;55636;51.108;13.622;2023-03-14T05:04:34;98134.91;;;10.90;55.53
68654;BME280;55636;51.108;13.622;2023-03-14T05:05:54;98140.09;;;10.91;55.35
68654;BME280;55636;51.108;13.622;2023-03-14T05:07:11;98136.53;;;10.91;55.40
68654;BME280;55636;51.108;13.622;2023-03-14T05:08:34;98132.13;;;10.90;55.53
68654;BME280;55636;51.108;13.622;2023-03-14T05:09:55;98141.53;;;10.89;55.40
68654;BME280;55636;51.108;13.622;2023-03-14T05:11:10;98137.16;;;10.88;55.49
68654;BME280;55636;51.108;13.622;2023-03-14T05:12:19;98139.91;;;10.88;55.36
68654;BME280;55636;51.108;13.622;2023-03-14T05:13:32;98149.31;;;10.86;55.23
68654;BME280;55636;51.108;13.622;2023-03-14T05:14:52;98144.13;;;10.85;55.37
68654;BME280;55636;51.108;13.622;2023-03-14T05:16:07;98137.78;;;10.84;55.35
68654;BME280;55636;51.108;13.622;2023-03-14T05:17:36;98137.78;;;10.84;55.40
68654;BME280;55636;51.108;13.622;2023-03-14T05:18:58;98135.34;;;10.83;55.11
68654;BME280;55636;51.108;13.622;2023-03-14T05:20:32;98155.50;;;10.83;55.13
68654;BME280;55636;51.108;13.622;2023-03-14T05:21:56;98146.69;;;10.81;55.27
68654;BME280;55636;51.108;13.622;2023-03-14T05:23:11;98143.94;;;10.81;55.36
68654;BME280;55636;51.108;13.622;2023-03-14T05:24:27;98152.22;;;10.81;55.22
68654;BME280;55636;51.108;13.622;2023-03-14T05:25:44;98147.00;;;10.80;55.21
68654;BME280;55636;51.108;13.622;2023-03-14T05:27:06;98146.22;;;10.79;55.38
68654;BME280;55636;51.108;13.622;2023-03-14T05:28:32;98136.28;;;10.78;55.20
68654;BME280;55636;51.108;13.622;2023-03-14T05:29:47;98134.66;;;10.77;55.40
68654;BME280;55636;51.108;13.622;2023-03-14T05:31:09;98145.41;;;10.79;55.22
68654;BME280;55636;51.108;13.622;2023-03-14T05:32:17;98141.81;;;10.78;55.36
68654;BME280;55636;51.108;13.622;2023-03-14T05:33:28;98134.66;;;10.77;55.43
68654;BME280;55636;51.108;13.622;2023-03-14T05:34:44;98133.03;;;10.76;55.16
68654;BME280;55636;51.108;13.622;2023-03-14T05:36:04;98138.56;;;10.76;55.22
68654;BME280;55636;51.108;13.622;2023-03-14T05:37:26;98132.22;;;10.76;55.34
68654;BME280;55636;51.108;13.622;2023-03-14T05:39:03;98130.56;;;10.75;55.35
68654;BME280;55636;51.108;13.622;2023-03-14T05:40:24;98131.41;;;10.75;55.24
68654;BME280;55636;51.108;13.622;2023-03-14T05:41:51;98129.78;;;10.74;55.39
68654;BME280;55636;51.108;13.622;2023-03-14T05:42:58;98133.66;;;10.73;55.27
68654;BME280;55636;51.108;13.622;2023-03-14T05:44:19;98133.66;;;10.73;55.30
68654;BME280;55636;51.108;13.622;2023-03-14T05:45:35;98138.38;;;10.73;55.51
68654;BME280;55636;51.108;13.622;2023-03-14T05:46:58;98124.91;;;10.71;55.18
68654;BME280;55636;51.108;13.622;2023-03-14T05:48:24;98132.34;;;10.70;55.21
68654;BME280;55636;51.108;13.622;2023-03-14T05:50:00;98123.25;;;10.70;55.53
68654;BME280;55636;51.108;13.622;2023-03-14T05:51:05;98124.91;;;10.71;55.30
68654;BME280;55636;51.108;13.622;2023-03-14T05:52:27;98122.44;;;10.69;55.18
68654;BME280;55636;51.108;13.622;2023-03-14T05:53:37;98118.88;;;10.69;55.26
68654;BME280;55636;51.108;13.622;2023-03-14T05:55:08;98117.22;;;10.68;55.33